createdAt,value
2023-01-09T00:01:37.318Z,98547.97
2023-01-09T00:04:04.186Z,98537.00
2023-01-09T00:06:30.669Z,98538.78
2023-01-09T00:08:57.393Z,98534.81
2023-01-09T00:11:23.761Z,98529.22
2023-01-09T00:13:50.186Z,98529.22
2023-01-09T00:16:17.069Z,98521.63
2023-01-09T00:18:43.523Z,98523.75
2023-01-09T00:21:11.614Z,98515.22
2023-01-09T00:23:38.316Z,98522.16
2023-01-09T00:26:09.996Z,98508.03
2023-01-09T00:28:37.029Z,98514.56
2023-01-09T00:31:05.003Z,98508.16
2023-01-09T00:33:36.714Z,98504.75
2023-01-09T00:36:03.344Z,98504.81
2023-01-09T00:38:29.757Z,98498.78
2023-01-09T00:40:56.405Z,98501.66
2023-01-09T00:43:25.094Z,98511.22
2023-01-09T00:45:51.562Z,98499.97
2023-01-09T00:48:26.829Z,98492.22
2023-01-09T00:50:55.271Z,98487.38
2023-01-09T00:53:23.343Z,98482.91
2023-01-09T00:55:51.421Z,98483.66
2023-01-09T00:58:18.680Z,98482.03
2023-01-09T01:00:45.402Z,98476.44
2023-01-09T01:03:11.905Z,98481.28
2023-01-09T01:05:56.668Z,98479.66
2023-01-09T01:08:23.056Z,98476.38
2023-01-09T01:10:49.587Z,98477.97
2023-01-09T01:13:16.185Z,98478.34
2023-01-09T01:15:43.941Z,98468.59
2023-01-09T01:18:11.609Z,98478.34
2023-01-09T01:20:40.890Z,98471.81
2023-01-09T01:23:07.319Z,98466.53
2023-01-09T01:25:36.932Z,98463.63
2023-01-09T01:28:03.381Z,98459.22
2023-01-09T01:30:31.241Z,98470.94
2023-01-09T01:32:57.559Z,98463.75
2023-01-09T01:35:24.095Z,98472.19
2023-01-09T01:37:50.420Z,98493.56
2023-01-09T01:40:17.031Z,98482.59
2023-01-09T01:42:51.337Z,98494.28
2023-01-09T01:45:19.592Z,98490.25
2023-01-09T01:47:59.925Z,98488.63
2023-01-09T01:50:42.191Z,98489.38
2023-01-09T01:53:13.841Z,98493.38
2023-01-09T01:55:47.305Z,98495.47
2023-01-09T01:58:14.817Z,98489.81
2023-01-09T02:00:44.802Z,98495.47
2023-01-09T02:03:12.413Z,98495.03
2023-01-09T02:05:39.135Z,98504.25
2023-01-09T02:08:07.056Z,98506.66
2023-01-09T02:10:34.424Z,98504.22
2023-01-09T02:13:01.996Z,98504.16
2023-01-09T02:15:30.319Z,98502.13
2023-01-09T02:18:25.257Z,98502.50
2023-01-09T02:21:05.787Z,98507.72
2023-01-09T02:23:35.216Z,98512.50
2023-01-09T02:26:14.655Z,98512.03
2023-01-09T02:28:50.585Z,98503.91
2023-01-09T02:31:49.137Z,98517.59
2023-01-09T02:34:22.502Z,98514.25
2023-01-09T02:37:09.711Z,98511.38
2023-01-09T02:39:38.062Z,98518.59
2023-01-09T02:42:18.040Z,98515.69
2023-01-09T02:44:44.522Z,98506.31
2023-01-09T02:47:16.936Z,98503.88
2023-01-09T02:49:46.652Z,98507.81
2023-01-09T02:52:34.024Z,98509.81
2023-01-09T02:55:17.704Z,98523.44
2023-01-09T02:58:05.179Z,98521.78
2023-01-09T03:01:04.827Z,98522.56
2023-01-09T03:03:37.039Z,98522.56
2023-01-09T03:06:10.124Z,98531.41
2023-01-09T03:08:45.823Z,98553.56
2023-01-09T03:11:12.202Z,98557.22
2023-01-09T03:13:50.677Z,98561.22
2023-01-09T03:16:20.986Z,98569.72
2023-01-09T03:18:49.266Z,98579.38
2023-01-09T03:21:16.388Z,98574.09
2023-01-09T03:23:57.502Z,98560.78
2023-01-09T03:26:24.398Z,98564.06
2023-01-09T03:28:51.417Z,98565.16
2023-01-09T03:31:18.226Z,98574.00
2023-01-09T03:33:44.872Z,98576.47
2023-01-09T03:36:12.777Z,98584.13
2023-01-09T03:38:39.222Z,98601.91
2023-01-09T03:41:06.083Z,98602.59
2023-01-09T03:43:32.464Z,98612.25
2023-01-09T03:45:59.195Z,98606.97
2023-01-09T03:48:25.619Z,98618.63
2023-01-09T03:50:52.851Z,98624.13
2023-01-09T03:53:19.993Z,98615.72
2023-01-09T03:55:47.596Z,98622.91
2023-01-09T03:58:14.682Z,98618.47
2023-01-09T04:00:41.547Z,98619.59
2023-01-09T04:03:08.942Z,98616.31
2023-01-09T04:05:35.780Z,98624.31
2023-01-09T04:08:05.921Z,98630.69
2023-01-09T04:10:32.350Z,98627.97
2023-01-09T04:12:59.083Z,98644.47
2023-01-09T04:15:25.774Z,98639.13
2023-01-09T04:17:52.495Z,98636.28
2023-01-09T04:20:19.049Z,98639.16
2023-01-09T04:22:45.526Z,98643.13
2023-01-09T04:25:12.137Z,98650.03
2023-01-09T04:27:38.568Z,98654.78
2023-01-09T04:30:05.829Z,98669.25
2023-01-09T04:32:32.275Z,98663.63
2023-01-09T04:34:58.683Z,98672.81
2023-01-09T04:37:25.102Z,98681.38
2023-01-09T04:39:52.326Z,98695.03
2023-01-09T04:42:18.673Z,98690.78
2023-01-09T04:44:45.055Z,98697.50
2023-01-09T04:47:13.459Z,98716.72
2023-01-09T04:49:40.149Z,98721.91
2023-01-09T04:52:06.517Z,98723.19
2023-01-09T04:54:34.343Z,98721.84
2023-01-09T04:57:00.865Z,98720.31
2023-01-09T04:59:28.400Z,98724.22
2023-01-09T05:01:56.110Z,98719.09
2023-01-09T05:04:22.694Z,98735.25
2023-01-09T05:06:49.161Z,98736.59
2023-01-09T05:09:15.578Z,98739.03
2023-01-09T05:11:45.647Z,98741.34
2023-01-09T05:14:13.352Z,98745.41
2023-01-09T05:16:40.043Z,98748.88
2023-01-09T05:19:06.533Z,98757.00
2023-01-09T05:21:32.931Z,98750.69
2023-01-09T05:23:59.322Z,98762.63
2023-01-09T05:26:25.999Z,98764.97
2023-01-09T05:28:53.381Z,98764.88
2023-01-09T05:31:21.369Z,98758.88
2023-01-09T05:33:47.761Z,98751.84
2023-01-09T05:36:14.219Z,98758.75
2023-01-09T05:38:40.756Z,98746.75
2023-01-09T05:41:07.495Z,98756.63
2023-01-09T05:43:34.194Z,98762.16
2023-01-09T05:46:00.582Z,98765.44
2023-01-09T05:48:26.965Z,98779.44
2023-01-09T05:50:53.289Z,98775.91
2023-01-09T05:53:19.642Z,98781.91
2023-01-09T05:55:45.961Z,98793.78
2023-01-09T05:58:12.793Z,98805.81
2023-01-09T06:00:39.187Z,98802.06
2023-01-09T06:03:05.683Z,98805.34
2023-01-09T06:05:32.120Z,98808.06
2023-01-09T06:07:58.516Z,98811.41
2023-01-09T06:10:24.932Z,98815.41
2023-01-09T06:12:51.779Z,98814.94
2023-01-09T06:15:20.357Z,98817.75
2023-01-09T06:17:46.761Z,98816.22
2023-01-09T06:20:13.140Z,98832.69
2023-01-09T06:22:39.607Z,98832.06
2023-01-09T06:25:06.333Z,98837.50
2023-01-09T06:27:32.686Z,98844.91
2023-01-09T06:29:59.089Z,98842.53
2023-01-09T06:32:25.448Z,98847.56
2023-01-09T06:34:51.802Z,98858.19
2023-01-09T06:37:18.194Z,98867.47
2023-01-09T06:39:44.534Z,98862.25
2023-01-09T06:42:10.986Z,98872.34
2023-01-09T06:44:37.367Z,98873.19
2023-01-09T06:47:04.356Z,98873.06
2023-01-09T06:49:30.888Z,98877.75
2023-01-09T06:51:57.305Z,98885.06
2023-01-09T06:54:23.721Z,98892.34
2023-01-09T06:56:50.046Z,98896.91
2023-01-09T06:59:16.469Z,98898.81
2023-01-09T07:01:42.933Z,98895.16
2023-01-09T07:04:12.738Z,98901.00
2023-01-09T07:06:39.167Z,98903.28
2023-01-09T07:09:06.077Z,98897.28
2023-01-09T07:11:32.819Z,98895.56
2023-01-09T07:13:59.235Z,98892.19
2023-01-09T07:16:25.620Z,98886.66
2023-01-09T07:18:52.536Z,98891.94
2023-01-09T07:21:18.881Z,98895.13
2023-01-09T07:23:45.245Z,98898.09
2023-01-09T07:26:11.613Z,98906.91
2023-01-09T07:28:38.015Z,98903.38
2023-01-09T07:31:07.228Z,98910.09
2023-01-09T07:33:34.384Z,98916.56
2023-01-09T07:36:00.794Z,98915.03
2023-01-09T07:38:27.149Z,98917.69
2023-01-09T07:40:53.584Z,98930.16
2023-01-09T07:43:19.954Z,98936.91
2023-01-09T07:45:46.357Z,98935.94
2023-01-09T07:48:12.750Z,98931.94
2023-01-09T07:50:39.098Z,98932.41
2023-01-09T07:53:05.497Z,98941.56
2023-01-09T07:55:31.887Z,98936.28
2023-01-09T07:57:58.281Z,98952.41
2023-01-09T08:00:24.614Z,98948.03
2023-01-09T08:02:52.915Z,98948.97
2023-01-09T08:05:19.949Z,98942.88
2023-01-09T08:07:46.552Z,98950.97
2023-01-09T08:10:12.988Z,98949.69
2023-01-09T08:12:42.858Z,98943.56
2023-01-09T08:15:09.811Z,98943.22
2023-01-09T08:17:36.744Z,98942.03
2023-01-09T08:20:03.451Z,98942.97
2023-01-09T08:22:29.829Z,98946.00
2023-01-09T08:24:56.214Z,98949.63
2023-01-09T08:27:22.766Z,98944.94
2023-01-09T08:29:49.234Z,98956.41
2023-01-09T08:32:15.570Z,98948.63
2023-01-09T08:34:41.925Z,98947.41
2023-01-09T08:37:08.320Z,98959.19
2023-01-09T08:39:35.997Z,98957.66
2023-01-09T08:42:20.799Z,98949.44
2023-01-09T08:45:05.544Z,98954.28
2023-01-09T08:47:34.626Z,98952.63
2023-01-09T08:50:01.225Z,98961.28
2023-01-09T08:52:30.433Z,98958.00
2023-01-09T08:54:57.194Z,98961.75
2023-01-09T08:57:23.697Z,98961.22
2023-01-09T08:59:50.415Z,98966.28
2023-01-09T09:02:16.995Z,98968.00
2023-01-09T09:04:43.466Z,98952.69
2023-01-09T09:07:09.822Z,98953.44
2023-01-09T09:09:36.220Z,98964.09
2023-01-09T09:12:02.634Z,98963.75
2023-01-09T09:14:47.785Z,98963.16
2023-01-09T09:17:14.285Z,98963.53
2023-01-09T09:19:42.487Z,98969.41
2023-01-09T09:22:08.884Z,98971.41
2023-01-09T09:24:35.266Z,98970.22
2023-01-09T09:27:01.646Z,98975.97
2023-01-09T09:29:28.052Z,98972.31
2023-01-09T09:31:54.538Z,98980.53
2023-01-09T09:34:21.121Z,98978.06
2023-01-09T09:36:47.682Z,98990.94
2023-01-09T09:39:14.148Z,98992.50
2023-01-09T09:42:18.756Z,98992.75
2023-01-09T09:44:57.881Z,98991.81
2023-01-09T09:47:45.899Z,98992.00
2023-01-09T09:50:27.710Z,98998.69
2023-01-09T09:53:12.383Z,99000.50
2023-01-09T09:55:40.483Z,99011.44
2023-01-09T09:58:14.463Z,99006.84
2023-01-09T10:00:41.101Z,99006.59
2023-01-09T10:03:18.342Z,99000.38
2023-01-09T10:05:48.281Z,98998.03
2023-01-09T10:08:46.481Z,98987.53
2023-01-09T10:11:22.120Z,98994.47
2023-01-09T10:14:16.088Z,98991.84
2023-01-09T10:16:57.795Z,98984.78
2023-01-09T10:19:43.884Z,98978.06
2023-01-09T10:22:17.198Z,98984.88
2023-01-09T10:25:00.731Z,98971.47
2023-01-09T10:27:31.097Z,98986.41
2023-01-09T10:30:24.166Z,98983.22
2023-01-09T10:33:09.630Z,98993.00
2023-01-09T10:35:51.124Z,98991.72
2023-01-09T10:38:22.249Z,98993.00
2023-01-09T10:41:09.671Z,99000.72
2023-01-09T10:43:43.468Z,98991.78
2023-01-09T10:46:12.231Z,98985.25
2023-01-09T10:48:42.953Z,98988.88
2023-01-09T10:51:39.504Z,98979.31
2023-01-09T10:54:12.829Z,98971.97
2023-01-09T10:56:42.208Z,98981.81
2023-01-09T10:59:08.981Z,98967.66
2023-01-09T11:01:38.179Z,98969.69
2023-01-09T11:04:31.799Z,98958.72
2023-01-09T11:07:12.356Z,98954.94
2023-01-09T11:10:01.887Z,98960.22
2023-01-09T11:12:30.257Z,98954.91
2023-01-09T11:15:19.515Z,98964.06
2023-01-09T11:17:51.102Z,98977.75
2023-01-09T11:20:26.087Z,98963.22
2023-01-09T11:22:57.514Z,98968.59
2023-01-09T11:25:25.999Z,98969.50
2023-01-09T11:28:05.091Z,98968.94
2023-01-09T11:30:36.355Z,98969.31
2023-01-09T11:33:15.187Z,98969.81
2023-01-09T11:36:02.054Z,98962.88
2023-01-09T11:38:30.196Z,98960.47
2023-01-09T11:40:59.824Z,98965.91
2023-01-09T11:43:30.825Z,98969.16
2023-01-09T11:46:01.379Z,98975.44
2023-01-09T11:48:29.676Z,98981.97
2023-01-09T11:50:58.504Z,98986.78
2023-01-09T11:53:26.182Z,98977.63
2023-01-09T11:55:57.061Z,98996.66
2023-01-09T11:58:23.451Z,99003.91
2023-01-09T12:01:15.708Z,98994.59
2023-01-09T12:03:55.046Z,98996.78
2023-01-09T12:06:31.663Z,99005.28
2023-01-09T12:09:09.165Z,98995.97
2023-01-09T12:11:38.556Z,99005.63
2023-01-09T12:14:38.937Z,98996.63
2023-01-09T12:17:16.747Z,98994.34
2023-01-09T12:19:55.724Z,99007.13
2023-01-09T12:22:30.936Z,99000.91
2023-01-09T12:25:13.521Z,99003.81
2023-01-09T12:27:53.144Z,98999.00
2023-01-09T12:30:45.687Z,98993.97
2023-01-09T12:33:33.985Z,98996.00
2023-01-09T12:36:13.081Z,98986.22
2023-01-09T12:38:55.324Z,98983.75
2023-01-09T12:41:44.185Z,98993.88
2023-01-09T12:44:34.941Z,98977.63
2023-01-09T12:47:11.985Z,98984.69
2023-01-09T12:49:56.091Z,98985.78
2023-01-09T12:52:25.349Z,98996.44
2023-01-09T12:55:14.796Z,98992.97
2023-01-09T12:57:44.045Z,98990.63
2023-01-09T13:00:15.154Z,99002.25
2023-01-09T13:03:07.276Z,99001.63
2023-01-09T13:05:43.160Z,98997.28
2023-01-09T13:08:17.107Z,98999.78
2023-01-09T13:10:49.517Z,99005.34
2023-01-09T13:13:31.006Z,98999.97
2023-01-09T13:15:59.578Z,98996.97
2023-01-09T13:18:34.187Z,99000.72
2023-01-09T13:21:01.186Z,99001.38
2023-01-09T13:23:56.698Z,99001.00
2023-01-09T13:26:32.517Z,99000.38
2023-01-09T13:29:03.089Z,99005.22
2023-01-09T13:32:05.594Z,99011.38
2023-01-09T13:34:34.891Z,99013.41
2023-01-09T13:37:01.424Z,99008.75
2023-01-09T13:39:32.233Z,99007.47
2023-01-09T13:42:19.546Z,99011.13
2023-01-09T13:44:47.615Z,99016.34
2023-01-09T13:47:18.018Z,99015.16
2023-01-09T13:49:47.498Z,99006.03
2023-01-09T13:52:36.894Z,99016.78
2023-01-09T13:55:14.605Z,99018.69
2023-01-09T13:58:02.698Z,99026.56
2023-01-09T14:00:28.969Z,99017.34
2023-01-09T14:02:56.781Z,99021.34
2023-01-09T14:05:23.037Z,99025.00
2023-01-09T14:07:50.756Z,99027.84
2023-01-09T14:10:26.237Z,99030.78
2023-01-09T14:12:55.063Z,99028.00
2023-01-09T14:15:37.734Z,99025.28
2023-01-09T14:18:06.369Z,99024.09
2023-01-09T14:20:38.314Z,99038.25
2023-01-09T14:23:27.997Z,99042.56
2023-01-09T14:25:52.352Z,99043.63
2023-01-09T14:28:20.537Z,99051.66
2023-01-09T14:30:52.576Z,99052.72
2023-01-09T14:33:19.076Z,99061.56
2023-01-09T14:36:24.005Z,99059.41
2023-01-09T14:38:55.047Z,99066.22
2023-01-09T14:41:51.895Z,99067.06
2023-01-09T14:44:34.506Z,99073.53
2023-01-09T14:47:17.392Z,99078.94
2023-01-09T14:49:47.155Z,99089.09
2023-01-09T14:52:18.401Z,99094.41
2023-01-09T14:54:44.844Z,99097.88
2023-01-09T14:57:28.948Z,99110.97
2023-01-09T15:00:04.133Z,99111.72
2023-01-09T15:02:33.218Z,99113.59
2023-01-09T15:05:05.827Z,99124.44
2023-01-09T15:07:40.427Z,99134.09
2023-01-09T15:10:07.596Z,99140.13
2023-01-09T15:12:34.126Z,99150.25
2023-01-09T15:15:01.632Z,99151.41
2023-01-09T15:17:34.283Z,99158.38
2023-01-09T15:20:02.994Z,99161.31
2023-01-09T15:22:31.588Z,99163.03
2023-01-09T15:24:58.942Z,99164.97
2023-01-09T15:27:25.885Z,99174.16
2023-01-09T15:29:52.809Z,99168.50
2023-01-09T15:32:25.148Z,99179.22
2023-01-09T15:34:52.014Z,99185.63
2023-01-09T15:37:33.259Z,99181.38
2023-01-09T15:40:01.591Z,99188.69
2023-01-09T15:42:49.247Z,99189.63
2023-01-09T15:45:27.989Z,99188.34
2023-01-09T15:47:55.174Z,99190.09
2023-01-09T15:50:27.852Z,99199.75
2023-01-09T15:52:55.754Z,99199.75
2023-01-09T15:55:35.200Z,99200.84
2023-01-09T15:58:03.833Z,99206.56
2023-01-09T16:00:33.369Z,99203.31
2023-01-09T16:03:09.363Z,99209.78
2023-01-09T16:05:48.480Z,99219.31
2023-01-09T16:08:24.138Z,99219.53
2023-01-09T16:10:56.530Z,99230.03
2023-01-09T16:13:24.202Z,99230.16
2023-01-09T16:15:50.949Z,99235.44
2023-01-09T16:18:23.013Z,99242.63
2023-01-09T16:20:49.668Z,99251.31
2023-01-09T16:23:25.029Z,99249.31
2023-01-09T16:26:03.084Z,99254.06
2023-01-09T16:28:30.694Z,99260.53
2023-01-09T16:30:59.937Z,99260.41
2023-01-09T16:33:28.187Z,99261.44
2023-01-09T16:35:54.735Z,99272.28
2023-01-09T16:38:22.503Z,99283.69
2023-01-09T16:41:39.901Z,99286.78
2023-01-09T16:44:09.369Z,99290.16
2023-01-09T16:46:38.341Z,99301.69
2023-01-09T16:49:08.773Z,99315.38
2023-01-09T16:51:35.181Z,99317.25
2023-01-09T16:54:01.573Z,99313.47
2023-01-09T16:56:29.692Z,99320.75
2023-01-09T16:58:56.117Z,99321.09
2023-01-09T17:01:22.814Z,99329.09
2023-01-09T17:03:49.663Z,99328.31
2023-01-09T17:06:29.246Z,99325.00
2023-01-09T17:08:55.726Z,99324.88
2023-01-09T17:11:28.112Z,99335.34
2023-01-09T17:13:54.561Z,99339.81
2023-01-09T17:16:21.205Z,99345.81
2023-01-09T17:18:47.604Z,99359.09
2023-01-09T17:21:19.967Z,99360.28
2023-01-09T17:23:46.905Z,99366.75
2023-01-09T17:26:37.999Z,99367.09
2023-01-09T17:29:04.617Z,99370.25
2023-01-09T17:31:31.343Z,99378.25
2023-01-09T17:33:58.075Z,99380.97
2023-01-09T17:36:28.145Z,99381.06
2023-01-09T17:38:55.019Z,99375.09
2023-01-09T17:41:23.174Z,99387.56
2023-01-09T17:43:49.713Z,99394.38
2023-01-09T17:46:19.207Z,99397.91
2023-01-09T17:48:46.200Z,99399.44
2023-01-09T17:51:12.563Z,99403.91
2023-01-09T17:53:38.895Z,99403.97
2023-01-09T17:56:05.407Z,99413.50
2023-01-09T17:58:32.120Z,99410.19
2023-01-09T18:00:59.371Z,99419.69
2023-01-09T18:03:30.965Z,99428.47
2023-01-09T18:05:57.367Z,99431.31
2023-01-09T18:08:23.728Z,99432.00
2023-01-09T18:10:50.587Z,99438.66
2023-01-09T18:13:17.104Z,99451.25
2023-01-09T18:15:44.501Z,99449.28
2023-01-09T18:18:11.538Z,99459.38
2023-01-09T18:20:41.572Z,99464.75
2023-01-09T18:23:08.770Z,99472.22
2023-01-09T18:25:38.969Z,99475.41
2023-01-09T18:28:05.412Z,99485.38
2023-01-09T18:30:31.833Z,99479.75
2023-01-09T18:32:58.349Z,99489.03
2023-01-09T18:35:24.733Z,99503.97
2023-01-09T18:37:51.093Z,99509.13
2023-01-09T18:40:17.507Z,99504.66
2023-01-09T18:42:45.334Z,99511.94
2023-01-09T18:45:11.855Z,99511.31
2023-01-09T18:47:38.298Z,99518.66
2023-01-09T18:50:05.135Z,99527.47
2023-01-09T18:52:31.476Z,99531.13
2023-01-09T18:54:57.822Z,99529.47
2023-01-09T18:57:24.250Z,99543.72
2023-01-09T18:59:50.578Z,99543.72
2023-01-09T19:02:25.329Z,99540.59
2023-01-09T19:04:51.865Z,99554.06
2023-01-09T19:07:18.570Z,99553.59
2023-01-09T19:09:45.252Z,99557.06
2023-01-09T19:12:11.991Z,99570.00
2023-01-09T19:14:38.559Z,99571.34
2023-01-09T19:17:05.108Z,99566.41
2023-01-09T19:19:31.565Z,99568.88
2023-01-09T19:21:57.937Z,99569.69
2023-01-09T19:24:24.625Z,99575.16
2023-01-09T19:26:51.619Z,99570.69
2023-01-09T19:29:18.074Z,99580.13
2023-01-09T19:31:48.424Z,99570.19
2023-01-09T19:34:16.013Z,99580.31
2023-01-09T19:36:47.177Z,99576.50
2023-01-09T19:39:14.280Z,99587.47
2023-01-09T19:41:40.784Z,99596.59
2023-01-09T19:44:07.770Z,99598.81
2023-01-09T19:46:35.395Z,99602.13
2023-01-09T19:49:04.669Z,99603.44
2023-01-09T19:51:32.444Z,99607.25
2023-01-09T19:56:28.200Z,99610.91
2023-01-09T19:58:59.282Z,99612.41
2023-01-09T20:01:31.113Z,99627.84
2023-01-09T20:04:02.579Z,99633.81
2023-01-09T20:06:30.695Z,99640.59
2023-01-09T20:08:59.283Z,99643.75
2023-01-09T20:11:27.553Z,99651.22
2023-01-09T20:13:55.605Z,99660.00
2023-01-09T20:16:23.291Z,99666.31
2023-01-09T20:18:50.283Z,99666.31
2023-01-09T20:21:18.701Z,99664.69
2023-01-09T20:23:45.278Z,99673.28
2023-01-09T20:26:11.848Z,99676.94
2023-01-09T20:28:38.775Z,99680.56
2023-01-09T20:31:05.851Z,99684.41
2023-01-09T20:33:32.250Z,99689.22
2023-01-09T20:36:02.173Z,99698.13
2023-01-09T20:38:28.546Z,99705.06
2023-01-09T20:40:54.952Z,99713.88
2023-01-09T20:43:21.321Z,99713.72
2023-01-09T20:45:47.776Z,99707.25
2023-01-09T20:48:14.486Z,99709.09
2023-01-09T20:50:40.976Z,99717.03
2023-01-09T20:53:08.001Z,99717.16
2023-01-09T20:55:34.430Z,99720.81
2023-01-09T20:58:00.874Z,99729.09
2023-01-09T21:00:31.499Z,99733.06
2023-01-09T21:02:59.119Z,99744.84
2023-01-09T21:05:25.745Z,99743.16
2023-01-09T21:07:52.187Z,99749.50
2023-01-09T21:10:18.619Z,99747.81
2023-01-09T21:12:45.028Z,99753.78
2023-01-09T21:15:15.176Z,99757.44
2023-01-09T21:17:41.845Z,99747.66
2023-01-09T21:20:12.199Z,99753.91
2023-01-09T21:22:39.062Z,99764.34
2023-01-09T21:25:06.327Z,99770.81
2023-01-09T21:27:36.300Z,99766.84
2023-01-09T21:30:04.738Z,99776.94
2023-01-09T21:32:32.784Z,99787.84
2023-01-09T21:35:03.382Z,99798.63
2023-01-09T21:37:31.667Z,99802.59
2023-01-09T21:39:58.036Z,99808.56
2023-01-09T21:42:43.123Z,99817.19
2023-01-09T21:45:37.384Z,99821.16
2023-01-09T21:48:05.185Z,99816.69
2023-01-09T21:50:33.161Z,99827.63
2023-01-09T21:52:59.848Z,99833.59
2023-01-09T21:55:26.308Z,99824.81
2023-01-09T21:57:56.186Z,99833.41
2023-01-09T22:00:23.504Z,99835.91
2023-01-09T22:02:50.213Z,99837.91
2023-01-09T22:05:17.042Z,99833.41
2023-01-09T22:07:43.414Z,99830.91
2023-01-09T22:10:10.121Z,99837.22
2023-01-09T22:12:36.541Z,99842.16
2023-01-09T22:15:03.128Z,99845.44
2023-01-09T22:17:29.563Z,99852.03
2023-01-09T22:19:55.949Z,99850.69
2023-01-09T22:22:22.285Z,99858.81
2023-01-09T22:24:50.175Z,99859.16
2023-01-09T22:27:16.577Z,99867.41
2023-01-09T22:29:42.903Z,99871.50
2023-01-09T22:32:09.277Z,99878.97
2023-01-09T22:34:35.692Z,99888.25
2023-01-09T22:37:02.311Z,99898.00
2023-01-09T22:39:28.666Z,99896.84
2023-01-09T22:41:55.135Z,99901.97
2023-01-09T22:44:21.569Z,99910.00
2023-01-09T22:46:47.908Z,99916.09
2023-01-09T22:49:14.336Z,99925.28
2023-01-09T22:51:40.676Z,99930.91
2023-01-09T22:54:07.029Z,99940.47
2023-01-09T22:56:33.507Z,99940.38
2023-01-09T22:59:00.924Z,99940.19
2023-01-09T23:01:27.387Z,99940.53
2023-01-09T23:03:53.765Z,99947.09
2023-01-09T23:06:22.008Z,99951.91
2023-01-09T23:08:53.138Z,99963.97
2023-01-09T23:11:44.092Z,99961.16
2023-01-09T23:14:11.707Z,99956.44
2023-01-09T23:16:38.335Z,99965.09
2023-01-09T23:19:14.274Z,99972.69
2023-01-09T23:21:40.715Z,99976.53
2023-01-09T23:24:07.452Z,99978.94
2023-01-09T23:26:34.658Z,99989.88
2023-01-09T23:29:01.578Z,99989.81
2023-01-09T23:31:28.035Z,99990.00
2023-01-09T23:33:54.432Z,99990.94
2023-01-09T23:36:22.380Z,100001.19
2023-01-09T23:38:49.458Z,100011.03
2023-01-09T23:41:16.299Z,100014.94
2023-01-09T23:43:43.829Z,100009.69
2023-01-09T23:46:12.213Z,100011.47
2023-01-09T23:48:38.567Z,100013.38
2023-01-09T23:51:05.964Z,100010.69
2023-01-09T23:53:32.922Z,100021.63
2023-01-09T23:55:59.739Z,100025.44
2023-01-09T23:58:27.396Z,100040.31
